sensor_id;sensor_type;location;lat;lon;timestamp;P1;durP1;ratioP1;P2;durP2;ratioP2
40827;SDS011;26549;50.918;5.338;2023-04-25T00:02:22;14.00;;;3.97;;
40827;SDS011;26549;50.918;5.338;2023-04-25T00:04:47;12.90;;;3.63;;
40827;SDS011;26549;50.918;5.338;2023-04-25T00:07:17;9.70;;;3.35;;
40827;SDS011;26549;50.918;5.338;2023-04-25T00:09:43;17.30;;;3.72;;
40827;SDS011;26549;50.918;5.338;2023-04-25T00:12:08;11.68;;;3.15;;
40827;SDS011;26549;50.918;5.338;2023-04-25T00:14:34;10.30;;;3.13;;
40827;SDS011;26549;50.918;5.338;2023-04-25T00:17:00;8.75;;;2.55;;
40827;SDS011;26549;50.918;5.338;2023-04-25T00:19:27;8.75;;;3.00;;
40827;SDS011;26549;50.918;5.338;2023-04-25T00:21:56;14.73;;;3.70;;
40827;SDS011;26549;50.918;5.338;2023-04-25T00:24:22;15.82;;;2.92;;
40827;SDS011;26549;50.918;5.338;2023-04-25T00:26:48;10.63;;;2.47;;
40827;SDS011;26549;50.918;5.338;2023-04-25T00:29:14;7.90;;;3.10;;
40827;SDS011;26549;50.918;5.338;2023-04-25T00:31:40;9.30;;;2.97;;
40827;SDS011;26549;50.918;5.338;2023-04-25T00:34:06;7.05;;;2.70;;
40827;SDS011;26549;50.918;5.338;2023-04-25T00:36:33;8.02;;;3.20;;
40827;SDS011;26549;50.918;5.338;2023-04-25T00:38:59;10.70;;;4.28;;
40827;SDS011;26549;50.918;5.338;2023-04-25T00:41:25;6.03;;;2.90;;
40827;SDS011;26549;50.918;5.338;2023-04-25T00:43:51;9.20;;;4.00;;
40827;SDS011;26549;50.918;5.338;2023-04-25T00:46:18;11.38;;;4.32;;
40827;SDS011;26549;50.918;5.338;2023-04-25T00:48:44;10.68;;;3.28;;
40827;SDS011;26549;50.918;5.338;2023-04-25T00:51:11;9.00;;;2.53;;
40827;SDS011;26549;50.918;5.338;2023-04-25T00:53:41;10.60;;;4.00;;
40827;SDS011;26549;50.918;5.338;2023-04-25T00:56:07;10.98;;;3.55;;
40827;SDS011;26549;50.918;5.338;2023-04-25T00:58:33;9.10;;;3.60;;
40827;SDS011;26549;50.918;5.338;2023-04-25T01:00:59;12.05;;;3.08;;
40827;SDS011;26549;50.918;5.338;2023-04-25T01:03:26;11.23;;;2.85;;
40827;SDS011;26549;50.918;5.338;2023-04-25T01:05:53;10.98;;;2.90;;
40827;SDS011;26549;50.918;5.338;2023-04-25T01:08:21;11.38;;;3.08;;
40827;SDS011;26549;50.918;5.338;2023-04-25T01:10:52;15.55;;;3.63;;
40827;SDS011;26549;50.918;5.338;2023-04-25T01:13:18;13.68;;;4.10;;
40827;SDS011;26549;50.918;5.338;2023-04-25T01:15:44;12.50;;;2.97;;
40827;SDS011;26549;50.918;5.338;2023-04-25T01:18:09;8.40;;;3.08;;
40827;SDS011;26549;50.918;5.338;2023-04-25T01:20:35;7.38;;;2.45;;
40827;SDS011;26549;50.918;5.338;2023-04-25T01:23:03;11.82;;;3.38;;
40827;SDS011;26549;50.918;5.338;2023-04-25T01:25:32;12.18;;;3.25;;
40827;SDS011;26549;50.918;5.338;2023-04-25T01:27:58;14.65;;;4.68;;
40827;SDS011;26549;50.918;5.338;2023-04-25T01:30:28;10.02;;;3.72;;
40827;SDS011;26549;50.918;5.338;2023-04-25T01:32:57;13.77;;;4.25;;
40827;SDS011;26549;50.918;5.338;2023-04-25T01:35:25;17.48;;;5.53;;
40827;SDS011;26549;50.918;5.338;2023-04-25T01:37:51;11.35;;;3.00;;
40827;SDS011;26549;50.918;5.338;2023-04-25T01:40:17;14.00;;;3.65;;
40827;SDS011;26549;50.918;5.338;2023-04-25T01:42:44;13.20;;;3.20;;
40827;SDS011;26549;50.918;5.338;2023-04-25T01:45:10;18.02;;;3.45;;
40827;SDS011;26549;50.918;5.338;2023-04-25T01:47:37;15.85;;;3.78;;
40827;SDS011;26549;50.918;5.338;2023-04-25T01:50:04;11.63;;;3.55;;
40827;SDS011;26549;50.918;5.338;2023-04-25T01:52:31;14.40;;;2.97;;
40827;SDS011;26549;50.918;5.338;2023-04-25T01:54:57;14.60;;;3.28;;
40827;SDS011;26549;50.918;5.338;2023-04-25T01:57:24;15.80;;;3.60;;
40827;SDS011;26549;50.918;5.338;2023-04-25T01:59:50;11.82;;;2.97;;
40827;SDS011;26549;50.918;5.338;2023-04-25T02:02:16;14.50;;;3.58;;
40827;SDS011;26549;50.918;5.338;2023-04-25T02:04:42;10.40;;;3.17;;
40827;SDS011;26549;50.918;5.338;2023-04-25T02:07:08;13.18;;;4.10;;
40827;SDS011;26549;50.918;5.338;2023-04-25T02:09:34;7.07;;;3.15;;
40827;SDS011;26549;50.918;5.338;2023-04-25T02:11:59;9.15;;;3.78;;
40827;SDS011;26549;50.918;5.338;2023-04-25T02:14:25;7.32;;;4.10;;
40827;SDS011;26549;50.918;5.338;2023-04-25T02:16:51;11.43;;;3.00;;
40827;SDS011;26549;50.918;5.338;2023-04-25T02:19:17;10.32;;;4.07;;
40827;SDS011;26549;50.918;5.338;2023-04-25T02:21:43;8.32;;;3.10;;
40827;SDS011;26549;50.918;5.338;2023-04-25T02:24:09;12.77;;;3.42;;
40827;SDS011;26549;50.918;5.338;2023-04-25T02:26:35;14.82;;;3.30;;
40827;SDS011;26549;50.918;5.338;2023-04-25T02:29:01;13.10;;;3.78;;
40827;SDS011;26549;50.918;5.338;2023-04-25T02:31:27;10.63;;;3.28;;
40827;SDS011;26549;50.918;5.338;2023-04-25T02:33:54;14.30;;;3.53;;
40827;SDS011;26549;50.918;5.338;2023-04-25T02:36:20;13.15;;;3.95;;
40827;SDS011;26549;50.918;5.338;2023-04-25T02:38:45;11.30;;;4.93;;
40827;SDS011;26549;50.918;5.338;2023-04-25T02:41:11;14.60;;;3.60;;
40827;SDS011;26549;50.918;5.338;2023-04-25T02:43:37;14.07;;;3.95;;
40827;SDS011;26549;50.918;5.338;2023-04-25T02:46:03;9.60;;;2.97;;
40827;SDS011;26549;50.918;5.338;2023-04-25T02:48:28;12.77;;;4.05;;
40827;SDS011;26549;50.918;5.338;2023-04-25T02:50:54;15.00;;;3.70;;
40827;SDS011;26549;50.918;5.338;2023-04-25T02:53:20;9.80;;;3.20;;
40827;SDS011;26549;50.918;5.338;2023-04-25T02:55:46;7.68;;;3.75;;
40827;SDS011;26549;50.918;5.338;2023-04-25T02:58:11;12.35;;;3.08;;
40827;SDS011;26549;50.918;5.338;2023-04-25T03:00:37;13.90;;;3.88;;
40827;SDS011;26549;50.918;5.338;2023-04-25T03:03:03;7.18;;;3.95;;
40827;SDS011;26549;50.918;5.338;2023-04-25T03:05:29;9.98;;;3.42;;
40827;SDS011;26549;50.918;5.338;2023-04-25T03:07:55;7.38;;;3.45;;
40827;SDS011;26549;50.918;5.338;2023-04-25T03:10:20;9.52;;;3.30;;
40827;SDS011;26549;50.918;5.338;2023-04-25T03:12:46;13.68;;;4.15;;
40827;SDS011;26549;50.918;5.338;2023-04-25T03:15:12;7.68;;;3.08;;
40827;SDS011;26549;50.918;5.338;2023-04-25T03:17:38;14.35;;;3.97;;
40827;SDS011;26549;50.918;5.338;2023-04-25T03:20:04;12.23;;;3.40;;
40827;SDS011;26549;50.918;5.338;2023-04-25T03:22:30;9.13;;;3.63;;
40827;SDS011;26549;50.918;5.338;2023-04-25T03:24:57;11.75;;;3.30;;
40827;SDS011;26549;50.918;5.338;2023-04-25T03:27:23;11.68;;;3.28;;
40827;SDS011;26549;50.918;5.338;2023-04-25T03:29:49;8.73;;;3.78;;
40827;SDS011;26549;50.918;5.338;2023-04-25T03:32:14;13.35;;;4.10;;
40827;SDS011;26549;50.918;5.338;2023-04-25T03:34:40;9.98;;;3.70;;
40827;SDS011;26549;50.918;5.338;2023-04-25T03:37:06;11.27;;;3.53;;
40827;SDS011;26549;50.918;5.338;2023-04-25T03:39:32;12.43;;;4.20;;
40827;SDS011;26549;50.918;5.338;2023-04-25T03:41:57;15.20;;;3.58;;
40827;SDS011;26549;50.918;5.338;2023-04-25T03:44:23;12.57;;;3.75;;
40827;SDS011;26549;50.918;5.338;2023-04-25T03:46:49;15.93;;;4.32;;
40827;SDS011;26549;50.918;5.338;2023-04-25T03:49:15;10.18;;;3.63;;
40827;SDS011;26549;50.918;5.338;2023-04-25T03:51:41;11.93;;;4.47;;
40827;SDS011;26549;50.918;5.338;2023-04-25T03:54:07;13.88;;;3.83;;
40827;SDS011;26549;50.918;5.338;2023-04-25T03:56:33;12.57;;;4.20;;
40827;SDS011;26549;50.918;5.338;2023-04-25T03:58:59;12.02;;;3.42;;
40827;SDS011;26549;50.918;5.338;2023-04-25T04:01:24;9.55;;;3.08;;
40827;SDS011;26549;50.918;5.338;2023-04-25T04:03:50;13.98;;;3.72;;
40827;SDS011;26549;50.918;5.338;2023-04-25T04:06:16;12.38;;;3.78;;
40827;SDS011;26549;50.918;5.338;2023-04-25T04:08:42;10.88;;;3.75;;
40827;SDS011;26549;50.918;5.338;2023-04-25T04:11:08;11.98;;;5.20;;
40827;SDS011;26549;50.918;5.338;2023-04-25T04:13:33;18.90;;;5.25;;
40827;SDS011;26549;50.918;5.338;2023-04-25T04:15:59;9.73;;;3.83;;
40827;SDS011;26549;50.918;5.338;2023-04-25T04:18:25;13.90;;;4.93;;
40827;SDS011;26549;50.918;5.338;2023-04-25T04:20:51;10.88;;;3.72;;
40827;SDS011;26549;50.918;5.338;2023-04-25T04:23:16;11.27;;;3.33;;
40827;SDS011;26549;50.918;5.338;2023-04-25T04:25:42;11.10;;;4.00;;
40827;SDS011;26549;50.918;5.338;2023-04-25T04:28:08;13.50;;;3.17;;
40827;SDS011;26549;50.918;5.338;2023-04-25T04:30:36;12.60;;;3.40;;
40827;SDS011;26549;50.918;5.338;2023-04-25T04:33:02;13.02;;;2.92;;
40827;SDS011;26549;50.918;5.338;2023-04-25T04:35:28;17.85;;;3.60;;
40827;SDS011;26549;50.918;5.338;2023-04-25T04:37:54;12.52;;;3.20;;
40827;SDS011;26549;50.918;5.338;2023-04-25T04:40:20;6.97;;;2.70;;
40827;SDS011;26549;50.918;5.338;2023-04-25T04:42:46;17.75;;;4.78;;
40827;SDS011;26549;50.918;5.338;2023-04-25T04:45:13;10.80;;;2.63;;
40827;SDS011;26549;50.918;5.338;2023-04-25T04:47:42;9.80;;;2.25;;
40827;SDS011;26549;50.918;5.338;2023-04-25T04:50:08;8.18;;;3.35;;
40827;SDS011;26549;50.918;5.338;2023-04-25T04:52:36;10.80;;;2.45;;
40827;SDS011;26549;50.918;5.338;2023-04-25T04:55:03;8.00;;;2.65;;
40827;SDS011;26549;50.918;5.338;2023-04-25T04:57:30;4.68;;;2.13;;
40827;SDS011;26549;50.918;5.338;2023-04-25T04:59:58;5.53;;;3.08;;
40827;SDS011;26549;50.918;5.338;2023-04-25T05:02:24;5.00;;;1.92;;
40827;SDS011;26549;50.918;5.338;2023-04-25T05:04:50;10.90;;;3.45;;
40827;SDS011;26549;50.918;5.338;2023-04-25T05:07:16;8.38;;;2.35;;
40827;SDS011;26549;50.918;5.338;2023-04-25T05:09:43;8.75;;;2.40;;
40827;SDS011;26549;50.918;5.338;2023-04-25T05:12:09;6.72;;;1.98;;
40827;SDS011;26549;50.918;5.338;2023-04-25T05:14:35;10.27;;;2.55;;
40827;SDS011;26549;50.918;5.338;2023-04-25T05:17:00;4.65;;;2.05;;
40827;SDS011;26549;50.918;5.338;2023-04-25T05:19:28;7.35;;;3.00;;
40827;SDS011;26549;50.918;5.338;2023-04-25T05:21:54;4.43;;;2.35;;
40827;SDS011;26549;50.918;5.338;2023-04-25T05:24:22;7.13;;;2.13;;
40827;SDS011;26549;50.918;5.338;2023-04-25T05:26:48;6.53;;;1.92;;
40827;SDS011;26549;50.918;5.338;2023-04-25T05:29:14;11.02;;;2.00;;
40827;SDS011;26549;50.918;5.338;2023-04-25T05:31:40;10.65;;;2.90;;
40827;SDS011;26549;50.918;5.338;2023-04-25T05:34:05;6.38;;;2.38;;
40827;SDS011;26549;50.918;5.338;2023-04-25T05:36:31;6.47;;;2.50;;
40827;SDS011;26549;50.918;5.338;2023-04-25T05:38:57;5.07;;;2.17;;
40827;SDS011;26549;50.918;5.338;2023-04-25T05:41:23;7.95;;;3.50;;
40827;SDS011;26549;50.918;5.338;2023-04-25T05:43:49;9.05;;;2.65;;
40827;SDS011;26549;50.918;5.338;2023-04-25T05:46:15;12.30;;;2.85;;
40827;SDS011;26549;50.918;5.338;2023-04-25T05:48:44;7.95;;;2.45;;
40827;SDS011;26549;50.918;5.338;2023-04-25T05:51:10;7.55;;;2.08;;
40827;SDS011;26549;50.918;5.338;2023-04-25T05:53:36;10.68;;;2.10;;
40827;SDS011;26549;50.918;5.338;2023-04-25T05:56:02;7.05;;;2.80;;
40827;SDS011;26549;50.918;5.338;2023-04-25T05:58:27;8.00;;;2.20;;
40827;SDS011;26549;50.918;5.338;2023-04-25T06:00:54;6.72;;;3.50;;
40827;SDS011;26549;50.918;5.338;2023-04-25T06:03:22;10.45;;;2.90;;
40827;SDS011;26549;50.918;5.338;2023-04-25T06:05:48;8.02;;;2.22;;
40827;SDS011;26549;50.918;5.338;2023-04-25T06:08:14;13.98;;;3.47;;
40827;SDS011;26549;50.918;5.338;2023-04-25T06:10:40;9.45;;;3.47;;
40827;SDS011;26549;50.918;5.338;2023-04-25T06:13:06;12.00;;;2.53;;
40827;SDS011;26549;50.918;5.338;2023-04-25T06:15:32;8.77;;;2.75;;
40827;SDS011;26549;50.918;5.338;2023-04-25T06:17:58;9.40;;;2.88;;
40827;SDS011;26549;50.918;5.338;2023-04-25T06:20:24;5.88;;;2.47;;
40827;SDS011;26549;50.918;5.338;2023-04-25T06:22:50;6.28;;;3.03;;
40827;SDS011;26549;50.918;5.338;2023-04-25T06:25:17;15.23;;;2.80;;
40827;SDS011;26549;50.918;5.338;2023-04-25T06:27:42;8.32;;;2.80;;
40827;SDS011;26549;50.918;5.338;2023-04-25T06:30:08;13.75;;;3.67;;
40827;SDS011;26549;50.918;5.338;2023-04-25T06:32:38;12.35;;;3.00;;
40827;SDS011;26549;50.918;5.338;2023-04-25T06:35:04;9.07;;;3.33;;
40827;SDS011;26549;50.918;5.338;2023-04-25T06:37:30;10.13;;;3.38;;
40827;SDS011;26549;50.918;5.338;2023-04-25T06:39:56;11.52;;;3.58;;
40827;SDS011;26549;50.918;5.338;2023-04-25T06:42:21;10.93;;;3.83;;
40827;SDS011;26549;50.918;5.338;2023-04-25T06:44:48;10.48;;;4.82;;
40827;SDS011;26549;50.918;5.338;2023-04-25T06:47:14;15.23;;;3.45;;
40827;SDS011;26549;50.918;5.338;2023-04-25T06:49:40;14.18;;;3.42;;
40827;SDS011;26549;50.918;5.338;2023-04-25T06:52:07;14.05;;;4.32;;
40827;SDS011;26549;50.918;5.338;2023-04-25T06:54:33;10.85;;;3.78;;
40827;SDS011;26549;50.918;5.338;2023-04-25T06:56:59;9.02;;;3.90;;
40827;SDS011;26549;50.918;5.338;2023-04-25T06:59:26;11.15;;;3.60;;
40827;SDS011;26549;50.918;5.338;2023-04-25T07:01:52;11.13;;;3.38;;
40827;SDS011;26549;50.918;5.338;2023-04-25T07:04:18;12.85;;;3.72;;
40827;SDS011;26549;50.918;5.338;2023-04-25T07:06:44;14.63;;;4.10;;
40827;SDS011;26549;50.918;5.338;2023-04-25T07:09:12;9.98;;;2.92;;
40827;SDS011;26549;50.918;5.338;2023-04-25T07:11:39;11.10;;;3.58;;
40827;SDS011;26549;50.918;5.338;2023-04-25T07:14:04;14.23;;;4.82;;
40827;SDS011;26549;50.918;5.338;2023-04-25T07:16:30;17.58;;;4.40;;
40827;SDS011;26549;50.918;5.338;2023-04-25T07:18:56;15.10;;;4.93;;
40827;SDS011;26549;50.918;5.338;2023-04-25T07:21:22;11.10;;;3.58;;
40827;SDS011;26549;50.918;5.338;2023-04-25T07:23:47;11.10;;;3.65;;
40827;SDS011;26549;50.918;5.338;2023-04-25T07:26:13;17.33;;;4.35;;
40827;SDS011;26549;50.918;5.338;2023-04-25T07:28:39;11.57;;;4.22;;
40827;SDS011;26549;50.918;5.338;2023-04-25T07:31:05;10.88;;;3.80;;
40827;SDS011;26549;50.918;5.338;2023-04-25T07:33:30;12.90;;;3.80;;
40827;SDS011;26549;50.918;5.338;2023-04-25T07:35:56;12.65;;;4.28;;
40827;SDS011;26549;50.918;5.338;2023-04-25T07:38:23;22.08;;;4.50;;
40827;SDS011;26549;50.918;5.338;2023-04-25T07:40:48;10.43;;;4.10;;
40827;SDS011;26549;50.918;5.338;2023-04-25T07:43:14;14.68;;;4.97;;
40827;SDS011;26549;50.918;5.338;2023-04-25T07:45:44;15.15;;;3.88;;
40827;SDS011;26549;50.918;5.338;2023-04-25T07:48:10;10.55;;;3.67;;
40827;SDS011;26549;50.918;5.338;2023-04-25T07:50:36;8.80;;;3.17;;
40827;SDS011;26549;50.918;5.338;2023-04-25T07:53:02;11.23;;;3.15;;
40827;SDS011;26549;50.918;5.338;2023-04-25T07:55:28;15.25;;;2.92;;
40827;SDS011;26549;50.918;5.338;2023-04-25T07:57:54;6.70;;;1.98;;
40827;SDS011;26549;50.918;5.338;2023-04-25T08:00:19;10.80;;;2.67;;
40827;SDS011;26549;50.918;5.338;2023-04-25T08:02:45;6.40;;;1.70;;
40827;SDS011;26549;50.918;5.338;2023-04-25T08:05:11;7.90;;;2.63;;
40827;SDS011;26549;50.918;5.338;2023-04-25T08:07:40;7.03;;;1.90;;
40827;SDS011;26549;50.918;5.338;2023-04-25T08:10:07;6.05;;;2.47;;
40827;SDS011;26549;50.918;5.338;2023-04-25T08:12:33;6.25;;;2.00;;
40827;SDS011;26549;50.918;5.338;2023-04-25T08:14:59;13.73;;;3.50;;
40827;SDS011;26549;50.918;5.338;2023-04-25T08:17:25;7.75;;;1.40;;
40827;SDS011;26549;50.918;5.338;2023-04-25T08:19:50;8.57;;;1.95;;
40827;SDS011;26549;50.918;5.338;2023-04-25T08:22:16;6.93;;;1.83;;
40827;SDS011;26549;50.918;5.338;2023-04-25T08:24:42;9.82;;;2.40;;
40827;SDS011;26549;50.918;5.338;2023-04-25T08:27:08;5.55;;;1.50;;
40827;SDS011;26549;50.918;5.338;2023-04-25T08:29:34;9.32;;;2.72;;
40827;SDS011;26549;50.918;5.338;2023-04-25T08:31:59;12.82;;;2.78;;
40827;SDS011;26549;50.918;5.338;2023-04-25T08:34:25;4.57;;;1.60;;
40827;SDS011;26549;50.918;5.338;2023-04-25T08:36:51;9.20;;;1.80;;
40827;SDS011;26549;50.918;5.338;2023-04-25T08:39:17;1.95;;;1.45;;
40827;SDS011;26549;50.918;5.338;2023-04-25T08:41:44;7.05;;;1.55;;
40827;SDS011;26549;50.918;5.338;2023-04-25T08:44:10;5.18;;;1.77;;
40827;SDS011;26549;50.918;5.338;2023-04-25T08:46:40;8.35;;;2.92;;
40827;SDS011;26549;50.918;5.338;2023-04-25T08:49:06;7.00;;;1.73;;
40827;SDS011;26549;50.918;5.338;2023-04-25T08:51:32;12.02;;;2.08;;
40827;SDS011;26549;50.918;5.338;2023-04-25T08:54:09;11.55;;;1.70;;
40827;SDS011;26549;50.918;5.338;2023-04-25T08:56:41;9.20;;;2.40;;
40827;SDS011;26549;50.918;5.338;2023-04-25T08:59:11;6.25;;;1.52;;
40827;SDS011;26549;50.918;5.338;2023-04-25T09:01:38;12.25;;;2.78;;
40827;SDS011;26549;50.918;5.338;2023-04-25T09:04:03;8.85;;;2.20;;
40827;SDS011;26549;50.918;5.338;2023-04-25T09:06:29;9.80;;;2.35;;
40827;SDS011;26549;50.918;5.338;2023-04-25T09:09:06;7.75;;;2.78;;
40827;SDS011;26549;50.918;5.338;2023-04-25T09:11:33;7.88;;;2.72;;
40827;SDS011;26549;50.918;5.338;2023-04-25T09:14:17;6.20;;;2.13;;
40827;SDS011;26549;50.918;5.338;2023-04-25T09:19:24;9.75;;;2.65;;
40827;SDS011;26549;50.918;5.338;2023-04-25T09:21:50;7.72;;;2.22;;
40827;SDS011;26549;50.918;5.338;2023-04-25T09:24:31;7.22;;;2.55;;
40827;SDS011;26549;50.918;5.338;2023-04-25T09:26:59;11.43;;;3.55;;
40827;SDS011;26549;50.918;5.338;2023-04-25T09:29:32;10.82;;;2.50;;
40827;SDS011;26549;50.918;5.338;2023-04-25T09:34:55;8.63;;;2.22;;
40827;SDS011;26549;50.918;5.338;2023-04-25T09:39:49;7.53;;;2.35;;
40827;SDS011;26549;50.918;5.338;2023-04-25T09:42:15;13.30;;;3.50;;
40827;SDS011;26549;50.918;5.338;2023-04-25T09:44:45;4.47;;;2.40;;
40827;SDS011;26549;50.918;5.338;2023-04-25T09:47:12;8.13;;;2.92;;
40827;SDS011;26549;50.918;5.338;2023-04-25T09:49:40;7.10;;;2.30;;
40827;SDS011;26549;50.918;5.338;2023-04-25T09:52:07;7.70;;;3.70;;
40827;SDS011;26549;50.918;5.338;2023-04-25T09:54:35;7.85;;;1.95;;
40827;SDS011;26549;50.918;5.338;2023-04-25T09:57:12;7.60;;;2.40;;
40827;SDS011;26549;50.918;5.338;2023-04-25T09:59:48;7.88;;;2.35;;
40827;SDS011;26549;50.918;5.338;2023-04-25T10:02:16;6.70;;;2.25;;
40827;SDS011;26549;50.918;5.338;2023-04-25T10:04:47;5.85;;;1.80;;
40827;SDS011;26549;50.918;5.338;2023-04-25T10:07:16;3.53;;;1.60;;
40827;SDS011;26549;50.918;5.338;2023-04-25T10:09:42;13.65;;;1.95;;
40827;SDS011;26549;50.918;5.338;2023-04-25T10:12:13;11.48;;;1.90;;
40827;SDS011;26549;50.918;5.338;2023-04-25T10:14:39;4.15;;;2.10;;
40827;SDS011;26549;50.918;5.338;2023-04-25T10:17:06;4.22;;;1.75;;
40827;SDS011;26549;50.918;5.338;2023-04-25T10:19:35;10.10;;;1.92;;
40827;SDS011;26549;50.918;5.338;2023-04-25T10:24:35;10.35;;;1.70;;
40827;SDS011;26549;50.918;5.338;2023-04-25T10:27:02;3.45;;;1.48;;
40827;SDS011;26549;50.918;5.338;2023-04-25T10:29:28;5.00;;;1.52;;
40827;SDS011;26549;50.918;5.338;2023-04-25T10:31:53;7.65;;;2.00;;
40827;SDS011;26549;50.918;5.338;2023-04-25T10:34:23;13.02;;;2.70;;
40827;SDS011;26549;50.918;5.338;2023-04-25T10:37:02;5.78;;;1.70;;
40827;SDS011;26549;50.918;5.338;2023-04-25T10:39:28;4.78;;;1.58;;
40827;SDS011;26549;50.918;5.338;2023-04-25T10:41:57;9.68;;;1.70;;
40827;SDS011;26549;50.918;5.338;2023-04-25T10:44:27;7.93;;;1.83;;
40827;SDS011;26549;50.918;5.338;2023-04-25T10:46:57;7.68;;;1.70;;
40827;SDS011;26549;50.918;5.338;2023-04-25T10:49:28;3.10;;;1.58;;
40827;SDS011;26549;50.918;5.338;2023-04-25T10:52:11;11.13;;;1.73;;
40827;SDS011;26549;50.918;5.338;2023-04-25T10:54:42;1.27;;;1.17;;
40827;SDS011;26549;50.918;5.338;2023-04-25T10:57:29;6.85;;;1.15;;
40827;SDS011;26549;50.918;5.338;2023-04-25T11:00:01;6.07;;;1.58;;
40827;SDS011;26549;50.918;5.338;2023-04-25T11:02:43;1.92;;;1.10;;
40827;SDS011;26549;50.918;5.338;2023-04-25T11:08:00;2.55;;;1.33;;
40827;SDS011;26549;50.918;5.338;2023-04-25T11:10:27;6.50;;;0.95;;
40827;SDS011;26549;50.918;5.338;2023-04-25T11:12:53;1.40;;;0.75;;
40827;SDS011;26549;50.918;5.338;2023-04-25T11:15:19;2.33;;;0.98;;
40827;SDS011;26549;50.918;5.338;2023-04-25T11:17:46;2.95;;;1.05;;
40827;SDS011;26549;50.918;5.338;2023-04-25T11:20:12;4.43;;;1.10;;
40827;SDS011;26549;50.918;5.338;2023-04-25T11:22:45;3.35;;;0.82;;
40827;SDS011;26549;50.918;5.338;2023-04-25T11:25:13;4.22;;;1.05;;
40827;SDS011;26549;50.918;5.338;2023-04-25T11:27:56;3.60;;;0.90;;
40827;SDS011;26549;50.918;5.338;2023-04-25T11:30:24;2.45;;;1.02;;
40827;SDS011;26549;50.918;5.338;2023-04-25T11:32:52;3.42;;;0.82;;
40827;SDS011;26549;50.918;5.338;2023-04-25T11:35:19;2.95;;;0.85;;
40827;SDS011;26549;50.918;5.338;2023-04-25T11:37:47;2.92;;;0.98;;
40827;SDS011;26549;50.918;5.338;2023-04-25T11:40:16;2.25;;;0.63;;
40827;SDS011;26549;50.918;5.338;2023-04-25T11:42:46;8.23;;;1.27;;
40827;SDS011;26549;50.918;5.338;2023-04-25T11:45:13;1.83;;;0.90;;
40827;SDS011;26549;50.918;5.338;2023-04-25T11:47:39;3.67;;;1.25;;
40827;SDS011;26549;50.918;5.338;2023-04-25T11:50:07;1.65;;;0.90;;
40827;SDS011;26549;50.918;5.338;2023-04-25T11:55:07;3.17;;;0.93;;
40827;SDS011;26549;50.918;5.338;2023-04-25T11:57:34;2.50;;;1.20;;
40827;SDS011;26549;50.918;5.338;2023-04-25T12:00:07;3.22;;;1.00;;
40827;SDS011;26549;50.918;5.338;2023-04-25T12:02:41;3.40;;;1.25;;
40827;SDS011;26549;50.918;5.338;2023-04-25T12:05:12;3.60;;;1.10;;
40827;SDS011;26549;50.918;5.338;2023-04-25T12:07:38;3.88;;;1.85;;
40827;SDS011;26549;50.918;5.338;2023-04-25T12:10:09;3.42;;;1.50;;
40827;SDS011;26549;50.918;5.338;2023-04-25T12:12:37;5.18;;;1.02;;
40827;SDS011;26549;50.918;5.338;2023-04-25T12:15:09;14.25;;;1.42;;
40827;SDS011;26549;50.918;5.338;2023-04-25T12:17:41;4.95;;;1.30;;
40827;SDS011;26549;50.918;5.338;2023-04-25T12:20:10;2.00;;;0.80;;
40827;SDS011;26549;50.918;5.338;2023-04-25T12:22:46;4.05;;;1.60;;
40827;SDS011;26549;50.918;5.338;2023-04-25T12:25:34;4.00;;;1.30;;
40827;SDS011;26549;50.918;5.338;2023-04-25T12:30:55;8.57;;;1.88;;
40827;SDS011;26549;50.918;5.338;2023-04-25T12:33:29;3.40;;;1.08;;
40827;SDS011;26549;50.918;5.338;2023-04-25T12:36:00;2.38;;;1.25;;
40827;SDS011;26549;50.918;5.338;2023-04-25T12:38:35;2.78;;;1.00;;
40827;SDS011;26549;50.918;5.338;2023-04-25T12:41:01;4.95;;;1.05;;
40827;SDS011;26549;50.918;5.338;2023-04-25T12:43:27;4.18;;;1.67;;
40827;SDS011;26549;50.918;5.338;2023-04-25T12:45:54;4.25;;;1.33;;
40827;SDS011;26549;50.918;5.338;2023-04-25T12:48:20;2.63;;;1.10;;
40827;SDS011;26549;50.918;5.338;2023-04-25T12:50:47;2.00;;;1.10;;
40827;SDS011;26549;50.918;5.338;2023-04-25T12:53:17;4.82;;;1.48;;
40827;SDS011;26549;50.918;5.338;2023-04-25T12:55:48;4.82;;;1.10;;
40827;SDS011;26549;50.918;5.338;2023-04-25T12:58:15;3.88;;;1.27;;
40827;SDS011;26549;50.918;5.338;2023-04-25T13:00:42;2.55;;;1.38;;
40827;SDS011;26549;50.918;5.338;2023-04-25T13:03:08;5.40;;;1.65;;
40827;SDS011;26549;50.918;5.338;2023-04-25T13:05:35;5.30;;;1.13;;
40827;SDS011;26549;50.918;5.338;2023-04-25T13:08:02;3.83;;;1.30;;
40827;SDS011;26549;50.918;5.338;2023-04-25T13:10:28;2.78;;;1.05;;
40827;SDS011;26549;50.918;5.338;2023-04-25T13:12:54;2.03;;;1.05;;
40827;SDS011;26549;50.918;5.338;2023-04-25T13:15:19;2.95;;;0.90;;
40827;SDS011;26549;50.918;5.338;2023-04-25T13:17:45;4.03;;;1.55;;
40827;SDS011;26549;50.918;5.338;2023-04-25T13:20:11;3.33;;;0.90;;
40827;SDS011;26549;50.918;5.338;2023-04-25T13:22:38;4.03;;;1.67;;
40827;SDS011;26549;50.918;5.338;2023-04-25T13:25:05;6.15;;;1.83;;
40827;SDS011;26549;50.918;5.338;2023-04-25T13:27:32;5.13;;;1.25;;
40827;SDS011;26549;50.918;5.338;2023-04-25T13:30:05;7.13;;;2.38;;
40827;SDS011;26549;50.918;5.338;2023-04-25T13:32:34;4.47;;;1.30;;
40827;SDS011;26549;50.918;5.338;2023-04-25T13:35:04;5.85;;;1.40;;
40827;SDS011;26549;50.918;5.338;2023-04-25T13:37:31;3.13;;;1.80;;
40827;SDS011;26549;50.918;5.338;2023-04-25T13:40:05;2.80;;;1.98;;
40827;SDS011;26549;50.918;5.338;2023-04-25T13:42:34;3.70;;;1.65;;
40827;SDS011;26549;50.918;5.338;2023-04-25T13:45:00;6.32;;;1.42;;
40827;SDS011;26549;50.918;5.338;2023-04-25T13:47:26;6.38;;;1.35;;
40827;SDS011;26549;50.918;5.338;2023-04-25T13:49:52;7.60;;;2.85;;
40827;SDS011;26549;50.918;5.338;2023-04-25T13:52:18;6.40;;;1.27;;
40827;SDS011;26549;50.918;5.338;2023-04-25T13:54:44;3.42;;;1.65;;
40827;SDS011;26549;50.918;5.338;2023-04-25T13:57:10;3.78;;;1.30;;
40827;SDS011;26549;50.918;5.338;2023-04-25T13:59:36;10.30;;;2.20;;
40827;SDS011;26549;50.918;5.338;2023-04-25T14:02:02;2.58;;;1.45;;
40827;SDS011;26549;50.918;5.338;2023-04-25T14:04:28;4.45;;;1.20;;
40827;SDS011;26549;50.918;5.338;2023-04-25T14:06:55;8.82;;;1.95;;
40827;SDS011;26549;50.918;5.338;2023-04-25T14:09:21;3.30;;;2.35;;
40827;SDS011;26549;50.918;5.338;2023-04-25T14:11:51;4.90;;;1.10;;
40827;SDS011;26549;50.918;5.338;2023-04-25T14:14:20;5.40;;;1.92;;
40827;SDS011;26549;50.918;5.338;2023-04-25T14:16:47;5.63;;;1.58;;
40827;SDS011;26549;50.918;5.338;2023-04-25T14:19:14;3.47;;;0.93;;
40827;SDS011;26549;50.918;5.338;2023-04-25T14:21:40;4.50;;;1.20;;
40827;SDS011;26549;50.918;5.338;2023-04-25T14:24:06;6.00;;;1.30;;
40827;SDS011;26549;50.918;5.338;2023-04-25T14:26:35;7.63;;;1.67;;
40827;SDS011;26549;50.918;5.338;2023-04-25T14:29:01;9.57;;;1.35;;
40827;SDS011;26549;50.918;5.338;2023-04-25T14:31:28;2.85;;;1.20;;
40827;SDS011;26549;50.918;5.338;2023-04-25T14:33:54;3.95;;;0.82;;
40827;SDS011;26549;50.918;5.338;2023-04-25T14:36:20;3.03;;;1.10;;
40827;SDS011;26549;50.918;5.338;2023-04-25T14:38:46;3.22;;;1.00;;
40827;SDS011;26549;50.918;5.338;2023-04-25T14:41:12;1.13;;;0.77;;
40827;SDS011;26549;50.918;5.338;2023-04-25T14:43:38;4.03;;;1.42;;
40827;SDS011;26549;50.918;5.338;2023-04-25T14:46:05;2.28;;;0.80;;
40827;SDS011;26549;50.918;5.338;2023-04-25T14:48:31;3.42;;;1.10;;
40827;SDS011;26549;50.918;5.338;2023-04-25T14:50:58;8.15;;;1.55;;
40827;SDS011;26549;50.918;5.338;2023-04-25T14:53:26;3.70;;;1.25;;
40827;SDS011;26549;50.918;5.338;2023-04-25T14:55:52;5.00;;;1.40;;
40827;SDS011;26549;50.918;5.338;2023-04-25T14:58:19;4.47;;;1.63;;
40827;SDS011;26549;50.918;5.338;2023-04-25T15:00:45;3.55;;;1.20;;
40827;SDS011;26549;50.918;5.338;2023-04-25T15:03:12;2.08;;;1.35;;